sensor_id;sensor_type;location;lat;lon;timestamp;temperature;humidity
67050;DHT22;53955;52.442;13.284;2023-04-01T00:01:14;13.10;78.10
67050;DHT22;53955;52.442;13.284;2023-04-01T00:03:41;13.20;78.40
67050;DHT22;53955;52.442;13.284;2023-04-01T00:06:09;13.20;78.60
67050;DHT22;53955;52.442;13.284;2023-04-01T00:08:37;13.20;78.30
67050;DHT22;53955;52.442;13.284;2023-04-01T00:11:04;13.10;78.80
67050;DHT22;53955;52.442;13.284;2023-04-01T00:13:30;13.20;78.70
67050;DHT22;53955;52.442;13.284;2023-04-01T00:15:59;13.20;78.60
67050;DHT22;53955;52.442;13.284;2023-04-01T00:18:26;13.30;78.30
67050;DHT22;53955;52.442;13.284;2023-04-01T00:20:53;13.30;78.20
67050;DHT22;53955;52.442;13.284;2023-04-01T00:23:20;13.40;77.70
67050;DHT22;53955;52.442;13.284;2023-04-01T00:25:48;13.50;77.40
67050;DHT22;53955;52.442;13.284;2023-04-01T00:28:15;13.30;78.30
67050;DHT22;53955;52.442;13.284;2023-04-01T00:30:41;13.30;78.40
67050;DHT22;53955;52.442;13.284;2023-04-01T00:33:10;13.30;78.40
67050;DHT22;53955;52.442;13.284;2023-04-01T00:35:37;13.30;78.20
67050;DHT22;53955;52.442;13.284;2023-04-01T00:38:04;13.20;78.70
67050;DHT22;53955;52.442;13.284;2023-04-01T00:40:33;13.30;78.50
67050;DHT22;53955;52.442;13.284;2023-04-01T00:43:00;13.20;78.80
67050;DHT22;53955;52.442;13.284;2023-04-01T00:45:30;13.20;78.80
67050;DHT22;53955;52.442;13.284;2023-04-01T00:48:00;13.10;79.00
67050;DHT22;53955;52.442;13.284;2023-04-01T00:50:30;13.10;79.40
67050;DHT22;53955;52.442;13.284;2023-04-01T00:52:58;13.10;79.50
67050;DHT22;53955;52.442;13.284;2023-04-01T00:55:27;13.10;79.90
67050;DHT22;53955;52.442;13.284;2023-04-01T00:57:57;13.10;79.70
67050;DHT22;53955;52.442;13.284;2023-04-01T01:00:25;13.10;79.40
67050;DHT22;53955;52.442;13.284;2023-04-01T01:02:52;13.10;79.50
67050;DHT22;53955;52.442;13.284;2023-04-01T01:05:23;13.20;79.50
67050;DHT22;53955;52.442;13.284;2023-04-01T01:08:00;13.10;79.40
67050;DHT22;53955;52.442;13.284;2023-04-01T01:10:31;13.00;79.60
67050;DHT22;53955;52.442;13.284;2023-04-01T01:13:04;13.00;79.70
67050;DHT22;53955;52.442;13.284;2023-04-01T01:15:35;13.00;79.80
67050;DHT22;53955;52.442;13.284;2023-04-01T01:18:07;13.00;79.60
67050;DHT22;53955;52.442;13.284;2023-04-01T01:21:03;13.10;79.90
67050;DHT22;53955;52.442;13.284;2023-04-01T01:24:07;13.10;80.00
67050;DHT22;53955;52.442;13.284;2023-04-01T01:27:00;13.10;79.90
67050;DHT22;53955;52.442;13.284;2023-04-01T01:29:43;13.10;79.80
67050;DHT22;53955;52.442;13.284;2023-04-01T01:32:22;13.10;79.80
67050;DHT22;53955;52.442;13.284;2023-04-01T01:35:03;13.20;79.80
67050;DHT22;53955;52.442;13.284;2023-04-01T01:37:30;13.10;79.90
67050;DHT22;53955;52.442;13.284;2023-04-01T01:39:59;13.10;79.80
67050;DHT22;53955;52.442;13.284;2023-04-01T01:42:29;13.20;79.60
67050;DHT22;53955;52.442;13.284;2023-04-01T01:44:59;13.10;79.60
67050;DHT22;53955;52.442;13.284;2023-04-01T01:47:27;13.10;79.70
67050;DHT22;53955;52.442;13.284;2023-04-01T01:49:55;13.20;79.60
67050;DHT22;53955;52.442;13.284;2023-04-01T01:52:24;13.10;79.70
67050;DHT22;53955;52.442;13.284;2023-04-01T01:54:52;13.10;79.90
67050;DHT22;53955;52.442;13.284;2023-04-01T01:57:22;13.10;79.90
67050;DHT22;53955;52.442;13.284;2023-04-01T01:59:50;13.10;79.80
67050;DHT22;53955;52.442;13.284;2023-04-01T02:02:19;13.10;79.90
67050;DHT22;53955;52.442;13.284;2023-04-01T02:04:46;13.00;79.70
67050;DHT22;53955;52.442;13.284;2023-04-01T02:07:17;13.00;79.50
67050;DHT22;53955;52.442;13.284;2023-04-01T02:09:46;13.00;79.60
67050;DHT22;53955;52.442;13.284;2023-04-01T02:12:15;13.00;80.00
67050;DHT22;53955;52.442;13.284;2023-04-01T02:14:47;13.10;79.70
67050;DHT22;53955;52.442;13.284;2023-04-01T02:17:17;13.00;79.40
67050;DHT22;53955;52.442;13.284;2023-04-01T02:19:50;13.10;79.90
67050;DHT22;53955;52.442;13.284;2023-04-01T02:22:21;13.00;79.80
67050;DHT22;53955;52.442;13.284;2023-04-01T02:24:50;13.10;80.00
67050;DHT22;53955;52.442;13.284;2023-04-01T02:27:19;13.00;79.60
67050;DHT22;53955;52.442;13.284;2023-04-01T02:29:46;12.90;79.80
67050;DHT22;53955;52.442;13.284;2023-04-01T02:32:13;12.90;80.10
67050;DHT22;53955;52.442;13.284;2023-04-01T02:34:41;12.90;80.00
67050;DHT22;53955;52.442;13.284;2023-04-01T02:37:08;13.00;80.00
67050;DHT22;53955;52.442;13.284;2023-04-01T02:39:35;13.00;79.90
67050;DHT22;53955;52.442;13.284;2023-04-01T02:42:03;13.00;79.80
67050;DHT22;53955;52.442;13.284;2023-04-01T02:44:30;13.00;79.90
67050;DHT22;53955;52.442;13.284;2023-04-01T02:46:56;13.00;79.90
67050;DHT22;53955;52.442;13.284;2023-04-01T02:49:23;13.00;80.10
67050;DHT22;53955;52.442;13.284;2023-04-01T02:51:50;13.00;80.30
67050;DHT22;53955;52.442;13.284;2023-04-01T02:54:17;13.00;80.40
67050;DHT22;53955;52.442;13.284;2023-04-01T02:56:44;13.00;79.80
67050;DHT22;53955;52.442;13.284;2023-04-01T02:59:12;13.00;80.20
67050;DHT22;53955;52.442;13.284;2023-04-01T03:01:38;12.90;80.40
67050;DHT22;53955;52.442;13.284;2023-04-01T03:04:05;12.90;80.80
67050;DHT22;53955;52.442;13.284;2023-04-01T03:06:31;12.90;80.50
67050;DHT22;53955;52.442;13.284;2023-04-01T03:08:58;12.90;80.30
67050;DHT22;53955;52.442;13.284;2023-04-01T03:11:25;12.90;80.40
67050;DHT22;53955;52.442;13.284;2023-04-01T03:13:52;12.90;80.40
67050;DHT22;53955;52.442;13.284;2023-04-01T03:16:20;12.90;80.30
67050;DHT22;53955;52.442;13.284;2023-04-01T03:18:46;12.90;80.40
67050;DHT22;53955;52.442;13.284;2023-04-01T03:21:16;12.90;80.40
67050;DHT22;53955;52.442;13.284;2023-04-01T03:23:43;13.00;80.50
67050;DHT22;53955;52.442;13.284;2023-04-01T03:26:10;12.90;80.40
67050;DHT22;53955;52.442;13.284;2023-04-01T03:28:37;12.90;80.60
67050;DHT22;53955;52.442;13.284;2023-04-01T03:31:03;13.00;80.80
67050;DHT22;53955;52.442;13.284;2023-04-01T03:33:32;12.90;80.50
67050;DHT22;53955;52.442;13.284;2023-04-01T03:35:59;13.00;80.60
67050;DHT22;53955;52.442;13.284;2023-04-01T03:38:25;13.00;80.60
67050;DHT22;53955;52.442;13.284;2023-04-01T03:40:52;12.90;80.60
67050;DHT22;53955;52.442;13.284;2023-04-01T03:43:18;13.00;80.40
67050;DHT22;53955;52.442;13.284;2023-04-01T03:45:46;13.00;80.70
67050;DHT22;53955;52.442;13.284;2023-04-01T03:48:13;12.90;80.70
67050;DHT22;53955;52.442;13.284;2023-04-01T03:50:42;13.00;80.50
67050;DHT22;53955;52.442;13.284;2023-04-01T03:53:08;13.00;81.00
67050;DHT22;53955;52.442;13.284;2023-04-01T03:55:35;12.90;80.60
67050;DHT22;53955;52.442;13.284;2023-04-01T03:58:02;12.90;80.70
67050;DHT22;53955;52.442;13.284;2023-04-01T04:00:29;12.90;81.00
67050;DHT22;53955;52.442;13.284;2023-04-01T04:02:56;12.90;80.90
67050;DHT22;53955;52.442;13.284;2023-04-01T04:05:23;12.90;81.10
67050;DHT22;53955;52.442;13.284;2023-04-01T04:07:52;12.90;81.00
67050;DHT22;53955;52.442;13.284;2023-04-01T04:10:19;12.90;81.30
67050;DHT22;53955;52.442;13.284;2023-04-01T04:12:45;12.90;81.10
67050;DHT22;53955;52.442;13.284;2023-04-01T04:15:12;12.90;81.30
67050;DHT22;53955;52.442;13.284;2023-04-01T04:17:39;13.00;81.60
67050;DHT22;53955;52.442;13.284;2023-04-01T04:20:06;13.00;81.10
67050;DHT22;53955;52.442;13.284;2023-04-01T04:22:34;13.00;81.10
67050;DHT22;53955;52.442;13.284;2023-04-01T04:25:02;12.90;81.70
67050;DHT22;53955;52.442;13.284;2023-04-01T04:27:28;12.90;81.30
67050;DHT22;53955;52.442;13.284;2023-04-01T04:29:55;12.90;81.40
67050;DHT22;53955;52.442;13.284;2023-04-01T04:32:21;12.90;81.60
67050;DHT22;53955;52.442;13.284;2023-04-01T04:34:48;12.90;81.20
67050;DHT22;53955;52.442;13.284;2023-04-01T04:37:15;12.90;81.60
67050;DHT22;53955;52.442;13.284;2023-04-01T04:39:41;13.00;81.10
67050;DHT22;53955;52.442;13.284;2023-04-01T04:42:09;13.00;81.30
67050;DHT22;53955;52.442;13.284;2023-04-01T04:44:36;13.00;81.20
67050;DHT22;53955;52.442;13.284;2023-04-01T04:47:03;12.90;81.40
67050;DHT22;53955;52.442;13.284;2023-04-01T04:49:29;13.00;81.10
67050;DHT22;53955;52.442;13.284;2023-04-01T04:51:56;13.00;81.50
67050;DHT22;53955;52.442;13.284;2023-04-01T04:54:22;13.00;81.00
67050;DHT22;53955;52.442;13.284;2023-04-01T04:56:52;13.00;80.70
67050;DHT22;53955;52.442;13.284;2023-04-01T04:59:20;13.10;80.70
67050;DHT22;53955;52.442;13.284;2023-04-01T05:01:46;13.00;80.60
67050;DHT22;53955;52.442;13.284;2023-04-01T05:04:13;13.10;81.00
67050;DHT22;53955;52.442;13.284;2023-04-01T05:06:40;13.00;81.10
67050;DHT22;53955;52.442;13.284;2023-04-01T05:09:06;13.10;80.50
67050;DHT22;53955;52.442;13.284;2023-04-01T05:11:33;13.00;80.70
67050;DHT22;53955;52.442;13.284;2023-04-01T05:14:00;13.20;80.80
67050;DHT22;53955;52.442;13.284;2023-04-01T05:16:28;13.10;80.50
67050;DHT22;53955;52.442;13.284;2023-04-01T05:18:56;13.10;81.10
67050;DHT22;53955;52.442;13.284;2023-04-01T05:21:23;13.00;81.30
67050;DHT22;53955;52.442;13.284;2023-04-01T05:23:49;13.00;81.90
67050;DHT22;53955;52.442;13.284;2023-04-01T05:26:16;13.00;81.30
67050;DHT22;53955;52.442;13.284;2023-04-01T05:28:42;13.00;81.50
67050;DHT22;53955;52.442;13.284;2023-04-01T05:31:09;13.10;81.10
67050;DHT22;53955;52.442;13.284;2023-04-01T05:33:37;13.10;80.80
67050;DHT22;53955;52.442;13.284;2023-04-01T05:36:08;13.10;81.40
67050;DHT22;53955;52.442;13.284;2023-04-01T05:38:35;13.30;80.60
67050;DHT22;53955;52.442;13.284;2023-04-01T05:41:02;13.30;80.80
67050;DHT22;53955;52.442;13.284;2023-04-01T05:43:29;13.20;80.60
67050;DHT22;53955;52.442;13.284;2023-04-01T05:45:56;13.00;81.00
67050;DHT22;53955;52.442;13.284;2023-04-01T05:48:22;13.20;81.60
67050;DHT22;53955;52.442;13.284;2023-04-01T05:50:50;13.20;80.80
67050;DHT22;53955;52.442;13.284;2023-04-01T05:53:17;13.10;81.40
67050;DHT22;53955;52.442;13.284;2023-04-01T05:55:43;13.20;81.10
67050;DHT22;53955;52.442;13.284;2023-04-01T05:58:10;13.40;80.50
67050;DHT22;53955;52.442;13.284;2023-04-01T06:00:37;13.40;80.90
67050;DHT22;53955;52.442;13.284;2023-04-01T06:03:03;13.40;80.50
67050;DHT22;53955;52.442;13.284;2023-04-01T06:05:39;13.50;80.50
67050;DHT22;53955;52.442;13.284;2023-04-01T06:08:11;13.50;80.30
67050;DHT22;53955;52.442;13.284;2023-04-01T06:10:49;13.70;79.80
67050;DHT22;53955;52.442;13.284;2023-04-01T06:13:25;13.60;79.50
67050;DHT22;53955;52.442;13.284;2023-04-01T06:16:04;13.60;80.10
67050;DHT22;53955;52.442;13.284;2023-04-01T06:18:53;13.70;79.90
67050;DHT22;53955;52.442;13.284;2023-04-01T06:21:48;13.70;79.80
67050;DHT22;53955;52.442;13.284;2023-04-01T06:24:42;13.80;79.40
67050;DHT22;53955;52.442;13.284;2023-04-01T06:27:19;13.80;79.90
67050;DHT22;53955;52.442;13.284;2023-04-01T06:30:01;14.00;79.00
67050;DHT22;53955;52.442;13.284;2023-04-01T06:32:51;14.00;78.60
67050;DHT22;53955;52.442;13.284;2023-04-01T06:35:41;14.00;78.60
67050;DHT22;53955;52.442;13.284;2023-04-01T06:38:29;14.10;78.60
67050;DHT22;53955;52.442;13.284;2023-04-01T06:41:23;14.20;78.40
67050;DHT22;53955;52.442;13.284;2023-04-01T06:43:58;14.20;78.20
67050;DHT22;53955;52.442;13.284;2023-04-01T06:46:36;14.20;78.70
67050;DHT22;53955;52.442;13.284;2023-04-01T06:49:17;14.30;79.20
67050;DHT22;53955;52.442;13.284;2023-04-01T06:51:52;14.30;78.40
67050;DHT22;53955;52.442;13.284;2023-04-01T06:54:28;14.30;78.00
67050;DHT22;53955;52.442;13.284;2023-04-01T06:57:00;14.30;78.80
67050;DHT22;53955;52.442;13.284;2023-04-01T06:59:32;14.40;78.40
67050;DHT22;53955;52.442;13.284;2023-04-01T07:02:02;14.60;77.70
67050;DHT22;53955;52.442;13.284;2023-04-01T07:04:31;14.70;77.80
67050;DHT22;53955;52.442;13.284;2023-04-01T07:07:01;14.80;76.80
67050;DHT22;53955;52.442;13.284;2023-04-01T07:09:32;14.70;76.60
67050;DHT22;53955;52.442;13.284;2023-04-01T07:12:12;14.80;76.00
67050;DHT22;53955;52.442;13.284;2023-04-01T07:14:42;15.00;76.20
67050;DHT22;53955;52.442;13.284;2023-04-01T07:17:14;14.90;76.80
67050;DHT22;53955;52.442;13.284;2023-04-01T07:19:45;14.90;76.40
67050;DHT22;53955;52.442;13.284;2023-04-01T07:22:21;15.00;76.10
67050;DHT22;53955;52.442;13.284;2023-04-01T07:24:53;15.10;75.80
67050;DHT22;53955;52.442;13.284;2023-04-01T07:27:24;15.20;76.10
67050;DHT22;53955;52.442;13.284;2023-04-01T07:29:51;15.20;75.70
67050;DHT22;53955;52.442;13.284;2023-04-01T07:32:28;15.20;75.20
67050;DHT22;53955;52.442;13.284;2023-04-01T07:35:12;15.30;76.00
67050;DHT22;53955;52.442;13.284;2023-04-01T07:37:47;15.20;75.60
67050;DHT22;53955;52.442;13.284;2023-04-01T07:40:24;15.30;75.70
67050;DHT22;53955;52.442;13.284;2023-04-01T07:43:11;15.20;75.90
67050;DHT22;53955;52.442;13.284;2023-04-01T07:45:42;15.30;75.80
67050;DHT22;53955;52.442;13.284;2023-04-01T07:48:18;15.20;74.90
67050;DHT22;53955;52.442;13.284;2023-04-01T07:50:52;15.20;75.80
67050;DHT22;53955;52.442;13.284;2023-04-01T07:53:23;15.20;75.70
67050;DHT22;53955;52.442;13.284;2023-04-01T07:56:00;15.10;75.60
67050;DHT22;53955;52.442;13.284;2023-04-01T07:58:36;15.00;76.00
67050;DHT22;53955;52.442;13.284;2023-04-01T08:01:13;15.10;76.60
67050;DHT22;53955;52.442;13.284;2023-04-01T08:03:53;15.00;76.40
67050;DHT22;53955;52.442;13.284;2023-04-01T08:06:27;15.10;75.80
67050;DHT22;53955;52.442;13.284;2023-04-01T08:09:02;15.20;76.20
67050;DHT22;53955;52.442;13.284;2023-04-01T08:11:34;15.30;75.70
67050;DHT22;53955;52.442;13.284;2023-04-01T08:14:08;15.30;74.90
67050;DHT22;53955;52.442;13.284;2023-04-01T08:16:42;15.30;76.20
67050;DHT22;53955;52.442;13.284;2023-04-01T08:19:18;15.40;75.80
67050;DHT22;53955;52.442;13.284;2023-04-01T08:21:50;15.30;76.10
67050;DHT22;53955;52.442;13.284;2023-04-01T08:24:24;15.40;75.30
67050;DHT22;53955;52.442;13.284;2023-04-01T08:26:54;15.50;74.90
67050;DHT22;53955;52.442;13.284;2023-04-01T08:29:26;15.60;74.80
67050;DHT22;53955;52.442;13.284;2023-04-01T08:32:06;15.60;74.30
67050;DHT22;53955;52.442;13.284;2023-04-01T08:34:36;15.80;73.90
67050;DHT22;53955;52.442;13.284;2023-04-01T08:37:05;15.70;73.70
67050;DHT22;53955;52.442;13.284;2023-04-01T08:39:36;15.80;73.70
67050;DHT22;53955;52.442;13.284;2023-04-01T08:42:25;15.70;72.80
67050;DHT22;53955;52.442;13.284;2023-04-01T08:47:57;16.00;71.80
67050;DHT22;53955;52.442;13.284;2023-04-01T08:53:37;16.30;69.70
67050;DHT22;53955;52.442;13.284;2023-04-01T08:56:14;16.50;69.70
67050;DHT22;53955;52.442;13.284;2023-04-01T08:58:55;16.60;69.60
67050;DHT22;53955;52.442;13.284;2023-04-01T09:01:42;16.60;68.40
67050;DHT22;53955;52.442;13.284;2023-04-01T09:04:36;16.70;67.80
67050;DHT22;53955;52.442;13.284;2023-04-01T09:07:11;16.90;68.20
67050;DHT22;53955;52.442;13.284;2023-04-01T09:12:52;17.00;67.30
67050;DHT22;53955;52.442;13.284;2023-04-01T09:15:34;16.90;67.40
67050;DHT22;53955;52.442;13.284;2023-04-01T09:18:24;16.80;66.40
67050;DHT22;53955;52.442;13.284;2023-04-01T09:20:59;16.50;67.50
67050;DHT22;53955;52.442;13.284;2023-04-01T09:23:41;16.20;68.30
67050;DHT22;53955;52.442;13.284;2023-04-01T09:26:30;15.60;70.00
67050;DHT22;53955;52.442;13.284;2023-04-01T09:29:02;15.10;73.10
67050;DHT22;53955;52.442;13.284;2023-04-01T09:31:45;14.70;74.70
67050;DHT22;53955;52.442;13.284;2023-04-01T09:37:23;14.10;76.30
67050;DHT22;53955;52.442;13.284;2023-04-01T09:40:09;13.90;76.70
67050;DHT22;53955;52.442;13.284;2023-04-01T09:42:45;13.80;78.00
67050;DHT22;53955;52.442;13.284;2023-04-01T09:45:27;13.80;78.00
67050;DHT22;53955;52.442;13.284;2023-04-01T09:48:02;13.70;78.50
67050;DHT22;53955;52.442;13.284;2023-04-01T09:50:39;13.60;78.80
67050;DHT22;53955;52.442;13.284;2023-04-01T09:53:24;13.50;79.20
67050;DHT22;53955;52.442;13.284;2023-04-01T09:56:19;13.60;78.50
67050;DHT22;53955;52.442;13.284;2023-04-01T10:02:13;13.60;78.70
67050;DHT22;53955;52.442;13.284;2023-04-01T10:05:21;13.60;78.40
67050;DHT22;53955;52.442;13.284;2023-04-01T10:11:07;13.30;78.40
67050;DHT22;53955;52.442;13.284;2023-04-01T10:17:08;13.10;78.70
67050;DHT22;53955;52.442;13.284;2023-04-01T10:19:55;13.20;78.50
67050;DHT22;53955;52.442;13.284;2023-04-01T10:22:36;13.10;78.20
67050;DHT22;53955;52.442;13.284;2023-04-01T10:25:25;13.10;78.60
67050;DHT22;53955;52.442;13.284;2023-04-01T10:28:04;13.00;78.10
67050;DHT22;53955;52.442;13.284;2023-04-01T10:33:27;13.00;78.20
67050;DHT22;53955;52.442;13.284;2023-04-01T10:36:10;13.00;79.00
67050;DHT22;53955;52.442;13.284;2023-04-01T10:38:55;12.90;78.90
67050;DHT22;53955;52.442;13.284;2023-04-01T10:44:13;13.00;79.10
67050;DHT22;53955;52.442;13.284;2023-04-01T10:47:02;12.90;78.50
67050;DHT22;53955;52.442;13.284;2023-04-01T10:49:41;12.90;79.20
67050;DHT22;53955;52.442;13.284;2023-04-01T10:54:58;13.00;79.70
67050;DHT22;53955;52.442;13.284;2023-04-01T10:57:47;13.00;79.60
67050;DHT22;53955;52.442;13.284;2023-04-01T11:00:31;13.10;78.90
67050;DHT22;53955;52.442;13.284;2023-04-01T11:03:40;13.00;77.90
67050;DHT22;53955;52.442;13.284;2023-04-01T11:06:46;12.90;78.40
67050;DHT22;53955;52.442;13.284;2023-04-01T11:09:48;13.00;78.40
67050;DHT22;53955;52.442;13.284;2023-04-01T11:12:56;13.10;78.80
67050;DHT22;53955;52.442;13.284;2023-04-01T11:15:52;13.10;78.00
67050;DHT22;53955;52.442;13.284;2023-04-01T11:18:59;13.00;77.70
67050;DHT22;53955;52.442;13.284;2023-04-01T11:21:54;13.10;77.20
67050;DHT22;53955;52.442;13.284;2023-04-01T11:27:32;12.90;76.80
67050;DHT22;53955;52.442;13.284;2023-04-01T11:30:23;12.90;77.10
67050;DHT22;53955;52.442;13.284;2023-04-01T11:33:00;12.80;77.30
67050;DHT22;53955;52.442;13.284;2023-04-01T11:35:49;12.80;77.10
67050;DHT22;53955;52.442;13.284;2023-04-01T11:38:31;12.60;78.80
67050;DHT22;53955;52.442;13.284;2023-04-01T11:41:13;12.60;79.30
67050;DHT22;53955;52.442;13.284;2023-04-01T11:43:52;12.50;79.00
67050;DHT22;53955;52.442;13.284;2023-04-01T11:46:27;12.40;79.40
67050;DHT22;53955;52.442;13.284;2023-04-01T11:49:04;12.40;79.50
67050;DHT22;53955;52.442;13.284;2023-04-01T11:51:47;12.40;79.90
67050;DHT22;53955;52.442;13.284;2023-04-01T11:54:22;12.30;79.20
67050;DHT22;53955;52.442;13.284;2023-04-01T11:57:07;12.40;80.00
67050;DHT22;53955;52.442;13.284;2023-04-01T12:00:02;12.40;79.50
67050;DHT22;53955;52.442;13.284;2023-04-01T12:02:44;12.30;79.60
67050;DHT22;53955;52.442;13.284;2023-04-01T12:05:17;12.40;78.90
67050;DHT22;53955;52.442;13.284;2023-04-01T12:07:53;12.50;79.10
67050;DHT22;53955;52.442;13.284;2023-04-01T12:10:26;12.50;79.10
67050;DHT22;53955;52.442;13.284;2023-04-01T12:13:02;12.40;79.20
67050;DHT22;53955;52.442;13.284;2023-04-01T12:15:37;12.30;78.60
67050;DHT22;53955;52.442;13.284;2023-04-01T12:18:16;12.30;78.80
67050;DHT22;53955;52.442;13.284;2023-04-01T12:20:50;12.30;79.00
67050;DHT22;53955;52.442;13.284;2023-04-01T12:23:30;12.10;78.20
67050;DHT22;53955;52.442;13.284;2023-04-01T12:26:10;12.10;78.90
67050;DHT22;53955;52.442;13.284;2023-04-01T12:28:46;12.10;79.70
67050;DHT22;53955;52.442;13.284;2023-04-01T12:31:27;12.10;79.60
67050;DHT22;53955;52.442;13.284;2023-04-01T12:34:28;12.20;79.40
67050;DHT22;53955;52.442;13.284;2023-04-01T12:37:05;12.20;78.90
67050;DHT22;53955;52.442;13.284;2023-04-01T12:39:48;12.00;79.40
67050;DHT22;53955;52.442;13.284;2023-04-01T12:42:35;12.20;78.60
67050;DHT22;53955;52.442;13.284;2023-04-01T12:45:16;12.10;79.00
67050;DHT22;53955;52.442;13.284;2023-04-01T12:48:04;12.10;78.80
67050;DHT22;53955;52.442;13.284;2023-04-01T12:50:42;11.90;79.00
67050;DHT22;53955;52.442;13.284;2023-04-01T12:53:28;11.90;79.10
67050;DHT22;53955;52.442;13.284;2023-04-01T12:56:02;11.90;78.90
67050;DHT22;53955;52.442;13.284;2023-04-01T12:58:57;12.10;79.60
67050;DHT22;53955;52.442;13.284;2023-04-01T13:01:30;12.00;79.20
67050;DHT22;53955;52.442;13.284;2023-04-01T13:04:25;12.00;79.60
67050;DHT22;53955;52.442;13.284;2023-04-01T13:07:15;12.10;79.00
67050;DHT22;53955;52.442;13.284;2023-04-01T13:09:54;12.00;78.10
67050;DHT22;53955;52.442;13.284;2023-04-01T13:12:35;11.90;78.60
67050;DHT22;53955;52.442;13.284;2023-04-01T13:15:16;11.90;79.60
67050;DHT22;53955;52.442;13.284;2023-04-01T13:17:51;12.10;79.60
67050;DHT22;53955;52.442;13.284;2023-04-01T13:20:28;12.10;78.60
67050;DHT22;53955;52.442;13.284;2023-04-01T13:23:07;11.90;78.20
67050;DHT22;53955;52.442;13.284;2023-04-01T13:25:41;11.90;79.40
67050;DHT22;53955;52.442;13.284;2023-04-01T13:28:16;12.00;79.40
67050;DHT22;53955;52.442;13.284;2023-04-01T13:30:47;11.90;79.30
67050;DHT22;53955;52.442;13.284;2023-04-01T13:33:20;11.80;78.90
67050;DHT22;53955;52.442;13.284;2023-04-01T13:36:01;11.60;79.30
67050;DHT22;53955;52.442;13.284;2023-04-01T13:38:43;11.80;79.30
67050;DHT22;53955;52.442;13.284;2023-04-01T13:41:23;11.70;79.50
67050;DHT22;53955;52.442;13.284;2023-04-01T13:44:00;11.50;79.30
67050;DHT22;53955;52.442;13.284;2023-04-01T13:46:59;11.50;79.70
67050;DHT22;53955;52.442;13.284;2023-04-01T13:49:41;11.30;79.90
67050;DHT22;53955;52.442;13.284;2023-04-01T13:52:24;11.30;79.20
67050;DHT22;53955;52.442;13.284;2023-04-01T13:55:00;11.20;78.70
67050;DHT22;53955;52.442;13.284;2023-04-01T13:57:48;11.20;78.90
67050;DHT22;53955;52.442;13.284;2023-04-01T14:00:27;11.20;79.30
67050;DHT22;53955;52.442;13.284;2023-04-01T14:03:27;11.00;80.00
67050;DHT22;53955;52.442;13.284;2023-04-01T14:06:17;10.90;78.80
67050;DHT22;53955;52.442;13.284;2023-04-01T14:08:55;10.90;79.30
67050;DHT22;53955;52.442;13.284;2023-04-01T14:11:35;10.90;79.70
67050;DHT22;53955;52.442;13.284;2023-04-01T14:14:16;10.90;79.20
67050;DHT22;53955;52.442;13.284;2023-04-01T14:16:59;10.90;79.00
67050;DHT22;53955;52.442;13.284;2023-04-01T14:19:39;10.70;79.30
67050;DHT22;53955;52.442;13.284;2023-04-01T14:22:17;10.80;79.30
67050;DHT22;53955;52.442;13.284;2023-04-01T14:25:30;10.80;79.60
67050;DHT22;53955;52.442;13.284;2023-04-01T14:28:12;10.90;79.30
67050;DHT22;53955;52.442;13.284;2023-04-01T14:33:45;10.80;78.40
67050;DHT22;53955;52.442;13.284;2023-04-01T14:36:48;10.80;78.40
67050;DHT22;53955;52.442;13.284;2023-04-01T14:39:38;10.80;77.80
67050;DHT22;53955;52.442;13.284;2023-04-01T14:42:21;10.60;78.60
67050;DHT22;53955;52.442;13.284;2023-04-01T14:45:08;10.60;78.60
67050;DHT22;53955;52.442;13.284;2023-04-01T14:47:48;10.60;78.80
67050;DHT22;53955;52.442;13.284;2023-04-01T14:50:18;10.60;78.40
67050;DHT22;53955;52.442;13.284;2023-04-01T14:52:57;10.60;77.60
67050;DHT22;53955;52.442;13.284;2023-04-01T14:55:31;10.50;77.50
67050;DHT22;53955;52.442;13.284;2023-04-01T14:58:00;10.60;77.60
67050;DHT22;53955;52.442;13.284;2023-04-01T15:00:42;10.60;77.50
67050;DHT22;53955;52.442;13.284;2023-04-01T15:03:19;10.50;77.60
67050;DHT22;53955;52.442;13.284;2023-04-01T15:05:49;10.40;77.70
67050;DHT22;53955;52.442;13.284;2023-04-01T15:08:21;10.40;77.70
67050;DHT22;53955;52.442;13.284;2023-04-01T15:11:02;10.30;78.10
67050;DHT22;53955;52.442;13.284;2023-04-01T15:13:53;10.30;77.50
67050;DHT22;53955;52.442;13.284;2023-04-01T15:16:26;10.30;77.70
67050;DHT22;53955;52.442;13.284;2023-04-01T15:19:01;10.30;77.60
67050;DHT22;53955;52.442;13.284;2023-04-01T15:21:46;10.30;77.00
67050;DHT22;53955;52.442;13.284;2023-04-01T15:24:22;10.20;76.70
67050;DHT22;53955;52.442;13.284;2023-04-01T15:27:13;10.10;77.70
67050;DHT22;53955;52.442;13.284;2023-04-01T15:29:56;10.10;77.70
67050;DHT22;53955;52.442;13.284;2023-04-01T15:32:29;10.30;77.50
67050;DHT22;53955;52.442;13.284;2023-04-01T15:35:03;10.30;77.10
67050;DHT22;53955;52.442;13.284;2023-04-01T15:37:40;10.40;76.40
67050;DHT22;53955;52.442;13.284;2023-04-01T15:40:19;10.40;76.10
67050;DHT22;53955;52.442;13.284;2023-04-01T15:43:00;10.30;76.10
67050;DHT22;53955;52.442;13.284;2023-04-01T15:45:38;10.20;77.10
67050;DHT22;53955;52.442;13.284;2023-04-01T15:48:22;10.10;77.30
67050;DHT22;53955;52.442;13.284;2023-04-01T15:51:02;10.00;77.60
67050;DHT22;53955;52.442;13.284;2023-04-01T15:53:43;10.10;76.40
67050;DHT22;53955;52.442;13.284;2023-04-01T15:56:22;10.10;76.70
67050;DHT22;53955;52.442;13.284;2023-04-01T15:58:59;9.90;76.20
67050;DHT22;53955;52.442;13.284;2023-04-01T16:01:36;10.00;76.40
67050;DHT22;53955;52.442;13.284;2023-04-01T16:04:17;10.00;76.70
67050;DHT22;53955;52.442;13.284;2023-04-01T16:07:02;10.00;76.10
67050;DHT22;53955;52.442;13.284;2023-04-01T16:09:47;10.00;75.40
67050;DHT22;53955;52.442;13.284;2023-04-01T16:12:19;9.90;75.50
67050;DHT22;53955;52.442;13.284;2023-04-01T16:15:01;10.00;75.50
67050;DHT22;53955;52.442;13.284;2023-04-01T16:17:46;9.80;75.80
67050;DHT22;53955;52.442;13.284;2023-04-01T16:20:18;9.90;75.70
67050;DHT22;53955;52.442;13.284;2023-04-01T16:22:50;10.00;75.00
67050;DHT22;53955;52.442;13.284;2023-04-01T16:25:24;9.90;76.20
67050;DHT22;53955;52.442;13.284;2023-04-01T16:28:02;9.80;77.40
67050;DHT22;53955;52.442;13.284;2023-04-01T16:30:35;9.90;76.30
67050;DHT22;53955;52.442;13.284;2023-04-01T16:33:05;9.80;76.40
67050;DHT22;53955;52.442;13.284;2023-04-01T16:35:42;9.80;76.70
67050;DHT22;53955;52.442;13.284;2023-04-01T16:38:16;9.60;76.40
67050;DHT22;53955;52.442;13.284;2023-04-01T16:40:50;9.50;77.70
67050;DHT22;53955;52.442;13.284;2023-04-01T16:43:25;9.60;77.10
67050;DHT22;53955;52.442;13.284;2023-04-01T16:46:20;9.70;77.70